createdAt,value
2022-10-22T00:00:54.109Z,100248.40
2022-10-22T00:02:27.955Z,100249.00
2022-10-22T00:04:01.162Z,100252.80
2022-10-22T00:05:32.834Z,100253.60
2022-10-22T00:07:04.569Z,100258.00
2022-10-22T00:08:36.319Z,100256.00
2022-10-22T00:10:08.776Z,100259.00
2022-10-22T00:11:42.191Z,100259.80
2022-10-22T00:13:14.338Z,100261.60
2022-10-22T00:14:47.074Z,100269.60
2022-10-22T00:16:18.944Z,100265.80
2022-10-22T00:17:51.436Z,100265.40
2022-10-22T00:19:23.489Z,100265.00
2022-10-22T00:20:55.189Z,100267.00
2022-10-22T00:22:26.919Z,100268.40
2022-10-22T00:23:58.678Z,100267.40
2022-10-22T00:25:31.566Z,100272.20
2022-10-22T00:27:04.108Z,100274.60
2022-10-22T00:28:36.210Z,100273.80
2022-10-22T00:30:08.811Z,100274.60
2022-10-22T00:31:40.498Z,100279.20
2022-10-22T00:33:12.371Z,100283.20
2022-10-22T00:34:44.264Z,100283.00
2022-10-22T00:36:16.881Z,100282.20
2022-10-22T00:37:48.553Z,100283.20
2022-10-22T00:39:23.782Z,100281.40
2022-10-22T00:40:56.238Z,100275.20
2022-10-22T00:42:31.861Z,100276.40
2022-10-22T00:44:06.411Z,100279.40
2022-10-22T00:45:38.233Z,100280.40
2022-10-22T00:47:09.987Z,100283.60
2022-10-22T00:48:41.952Z,100283.60
2022-10-22T00:50:47.980Z,100278.60
2022-10-22T00:52:20.365Z,100269.80
2022-10-22T00:53:57.716Z,100268.40
2022-10-22T00:55:32.632Z,100266.80
2022-10-22T00:57:04.814Z,100267.60
2022-10-22T00:58:44.202Z,100272.40
2022-10-22T01:00:17.427Z,100270.80
2022-10-22T01:01:50.309Z,100264.60
2022-10-22T01:03:22.515Z,100262.60
2022-10-22T01:04:54.250Z,100263.20
2022-10-22T01:06:33.107Z,100268.40
2022-10-22T01:10:08.210Z,100255.00
2022-10-22T01:12:02.810Z,100255.40
2022-10-22T01:14:22.111Z,100255.60
2022-10-22T01:16:30.424Z,100259.20
2022-10-22T01:18:15.844Z,100264.40
2022-10-22T01:20:36.187Z,100263.60
2022-10-22T01:22:36.085Z,100259.80
2022-10-22T01:24:39.092Z,100261.60
2022-10-22T01:26:48.556Z,100254.20
2022-10-22T01:29:00.355Z,100253.00
2022-10-22T01:30:33.552Z,100252.80
2022-10-22T01:32:14.369Z,100252.40
2022-10-22T01:33:49.018Z,100247.80
2022-10-22T01:35:38.401Z,100252.20
2022-10-22T01:37:15.315Z,100251.20
2022-10-22T01:38:49.559Z,100251.00
2022-10-22T01:40:23.508Z,100247.60
2022-10-22T01:41:57.325Z,100245.80
2022-10-22T01:43:29.110Z,100246.80
2022-10-22T01:45:00.842Z,100248.60
2022-10-22T01:46:32.727Z,100247.60
2022-10-22T01:48:53.747Z,100241.80
2022-10-22T01:50:46.520Z,100240.00
2022-10-22T01:52:36.386Z,100240.00
2022-10-22T01:54:49.271Z,100245.00
2022-10-22T01:56:57.368Z,100237.80
2022-10-22T01:58:50.303Z,100240.60
2022-10-22T02:00:22.261Z,100240.40
2022-10-22T02:02:29.018Z,100237.80
2022-10-22T02:04:28.320Z,100232.40
2022-10-22T02:06:09.879Z,100233.60
2022-10-22T02:07:52.296Z,100236.00
2022-10-22T02:09:28.354Z,100238.00
2022-10-22T02:11:01.420Z,100233.80
2022-10-22T02:12:35.182Z,100236.00
2022-10-22T02:14:07.864Z,100239.40
2022-10-22T02:15:42.156Z,100241.80
2022-10-22T02:17:20.375Z,100240.00
2022-10-22T02:18:58.212Z,100232.00
2022-10-22T02:20:36.428Z,100231.60
2022-10-22T02:22:08.637Z,100229.60
2022-10-22T02:23:40.663Z,100233.00
2022-10-22T02:25:13.169Z,100232.80
2022-10-22T02:27:02.723Z,100239.80
2022-10-22T02:28:48.939Z,100245.40
2022-10-22T02:30:22.634Z,100247.40
2022-10-22T02:31:58.801Z,100246.60
2022-10-22T02:33:36.929Z,100244.60
2022-10-22T02:35:15.630Z,100243.60
2022-10-22T02:36:50.469Z,100243.00
2022-10-22T02:38:27.140Z,100247.20
2022-10-22T02:39:59.553Z,100246.40
2022-10-22T02:41:31.666Z,100246.80
2022-10-22T02:43:07.248Z,100244.00
2022-10-22T02:44:39.033Z,100244.00
2022-10-22T02:46:11.684Z,100242.20
2022-10-22T02:47:44.323Z,100244.60
2022-10-22T02:49:16.464Z,100245.00
2022-10-22T02:50:48.199Z,100237.00
2022-10-22T02:52:19.931Z,100242.00
2022-10-22T02:53:51.653Z,100248.20
2022-10-22T02:55:23.422Z,100247.80
2022-10-22T02:56:55.172Z,100247.20
2022-10-22T02:58:26.992Z,100253.80
2022-10-22T02:59:58.823Z,100254.40
2022-10-22T03:01:30.581Z,100253.60
2022-10-22T03:03:02.287Z,100253.80
2022-10-22T03:04:34.275Z,100252.20
2022-10-22T03:06:06.389Z,100256.60
2022-10-22T03:07:38.393Z,100256.80
2022-10-22T03:09:10.922Z,100257.20
2022-10-22T03:10:43.512Z,100257.80
2022-10-22T03:12:15.323Z,100258.80
2022-10-22T03:13:47.011Z,100253.20
2022-10-22T03:15:18.756Z,100250.40
2022-10-22T03:16:50.565Z,100247.60
2022-10-22T03:18:22.284Z,100247.80
2022-10-22T03:19:54.022Z,100253.20
2022-10-22T03:21:45.109Z,100251.60
2022-10-22T03:23:20.140Z,100253.20
2022-10-22T03:24:58.306Z,100255.80
2022-10-22T03:26:30.154Z,100255.40
2022-10-22T03:28:06.939Z,100256.40
2022-10-22T03:29:43.397Z,100256.40
2022-10-22T03:31:15.176Z,100259.20
2022-10-22T03:32:46.891Z,100258.00
2022-10-22T03:34:18.581Z,100259.60
2022-10-22T03:35:50.322Z,100258.20
2022-10-22T03:37:24.369Z,100259.60
2022-10-22T03:38:56.120Z,100260.80
2022-10-22T03:40:27.893Z,100256.00
2022-10-22T03:42:02.350Z,100257.20
2022-10-22T03:43:38.556Z,100260.00
2022-10-22T03:45:11.124Z,100261.20
2022-10-22T03:46:44.219Z,100264.60
2022-10-22T03:48:15.900Z,100263.00
2022-10-22T03:49:47.582Z,100263.80
2022-10-22T03:51:19.265Z,100269.60
2022-10-22T03:52:51.034Z,100268.20
2022-10-22T03:54:22.799Z,100270.80
2022-10-22T03:55:54.528Z,100269.80
2022-10-22T03:57:26.248Z,100272.40
2022-10-22T03:59:00.451Z,100274.80
2022-10-22T04:00:32.879Z,100275.80
2022-10-22T04:02:06.030Z,100276.80
2022-10-22T04:03:38.372Z,100279.60
2022-10-22T04:05:10.277Z,100277.00
2022-10-22T04:06:42.629Z,100279.80
2022-10-22T04:08:14.289Z,100281.40
2022-10-22T04:09:45.972Z,100285.00
2022-10-22T04:11:18.954Z,100279.40
2022-10-22T04:12:51.943Z,100282.80
2022-10-22T04:14:23.746Z,100284.80
2022-10-22T04:15:55.521Z,100285.80
2022-10-22T04:17:33.979Z,100287.60
2022-10-22T04:19:06.073Z,100282.40
2022-10-22T04:20:37.775Z,100283.80
2022-10-22T04:22:09.445Z,100286.40
2022-10-22T04:23:51.018Z,100290.40
2022-10-22T04:25:24.112Z,100287.60
2022-10-22T04:26:56.156Z,100287.80
2022-10-22T04:28:28.627Z,100288.80
2022-10-22T04:30:00.914Z,100292.20
2022-10-22T04:31:32.671Z,100290.40
2022-10-22T04:33:04.353Z,100289.40
2022-10-22T04:34:36.075Z,100292.20
2022-10-22T04:36:11.760Z,100288.80
2022-10-22T04:37:43.513Z,100292.00
2022-10-22T04:39:15.904Z,100292.40
2022-10-22T04:40:47.599Z,100286.80
2022-10-22T04:42:19.286Z,100288.40
2022-10-22T04:43:51.227Z,100288.20
2022-10-22T04:45:23.047Z,100288.00
2022-10-22T04:49:09.953Z,100285.00
2022-10-22T04:50:41.664Z,100286.20
2022-10-22T04:52:14.391Z,100285.20
2022-10-22T04:53:46.995Z,100289.80
2022-10-22T04:55:19.009Z,100287.40
2022-10-22T04:56:51.024Z,100286.80
2022-10-22T04:58:22.746Z,100288.00
2022-10-22T04:59:54.492Z,100290.20
2022-10-22T05:01:30.710Z,100294.20
2022-10-22T05:03:02.535Z,100295.60
2022-10-22T05:04:34.453Z,100301.20
2022-10-22T05:06:07.863Z,100296.80
2022-10-22T05:07:40.005Z,100305.40
2022-10-22T05:09:17.964Z,100300.80
2022-10-22T05:10:49.670Z,100314.20
2022-10-22T05:12:21.462Z,100312.20
2022-10-22T05:13:53.804Z,100310.80
2022-10-22T05:15:25.688Z,100308.80
2022-10-22T05:16:59.026Z,100309.40
2022-10-22T05:18:30.715Z,100314.80
2022-10-22T05:20:02.722Z,100312.20
2022-10-22T05:21:35.356Z,100315.00
2022-10-22T05:23:07.323Z,100313.60
2022-10-22T05:24:39.182Z,100318.40
2022-10-22T05:26:13.812Z,100320.40
2022-10-22T05:27:50.484Z,100321.40
2022-10-22T05:29:22.996Z,100322.00
2022-10-22T05:30:57.739Z,100333.20
2022-10-22T05:32:29.425Z,100331.20
2022-10-22T05:34:01.526Z,100333.80
2022-10-22T05:35:33.224Z,100326.80
2022-10-22T05:37:04.894Z,100331.20
2022-10-22T05:38:36.854Z,100329.80
2022-10-22T05:40:19.553Z,100334.80
2022-10-22T05:41:58.758Z,100334.20
2022-10-22T05:43:31.293Z,100327.00
2022-10-22T05:45:03.538Z,100332.40
2022-10-22T05:46:36.801Z,100330.40
2022-10-22T05:48:09.816Z,100337.60
2022-10-22T05:49:41.669Z,100337.60
2022-10-22T05:51:14.211Z,100336.20
2022-10-22T05:52:45.869Z,100339.60
2022-10-22T05:54:20.907Z,100341.40
2022-10-22T05:55:52.734Z,100343.80
2022-10-22T05:57:24.541Z,100349.20
2022-10-22T05:58:57.042Z,100346.40
2022-10-22T06:00:28.946Z,100351.40
2022-10-22T06:02:00.802Z,100355.40
2022-10-22T06:03:33.307Z,100351.40
2022-10-22T06:05:05.089Z,100357.40
2022-10-22T06:06:46.297Z,100355.40
2022-10-22T06:08:19.128Z,100352.60
2022-10-22T06:09:51.373Z,100357.20
2022-10-22T06:11:25.313Z,100359.80
2022-10-22T06:12:57.037Z,100356.20
2022-10-22T06:14:29.310Z,100360.20
2022-10-22T06:16:01.074Z,100361.40
2022-10-22T06:17:33.017Z,100363.80
2022-10-22T06:19:05.511Z,100369.80
2022-10-22T06:20:37.293Z,100369.40
2022-10-22T06:22:09.105Z,100371.60
2022-10-22T06:23:42.420Z,100372.80
2022-10-22T06:25:14.297Z,100375.60
2022-10-22T06:26:49.885Z,100378.60
2022-10-22T06:28:21.681Z,100378.40
2022-10-22T06:29:53.558Z,100380.00
2022-10-22T06:31:26.921Z,100383.20
2022-10-22T06:32:58.618Z,100385.40
2022-10-22T06:34:30.893Z,100387.60
2022-10-22T06:36:12.343Z,100392.00
2022-10-22T06:37:44.074Z,100391.00
2022-10-22T06:39:18.380Z,100392.20
2022-10-22T06:40:50.067Z,100392.20
2022-10-22T06:42:21.739Z,100395.60
2022-10-22T06:43:55.663Z,100396.40
2022-10-22T06:45:27.664Z,100400.80
2022-10-22T06:46:59.455Z,100403.40
2022-10-22T06:48:31.198Z,100406.00
2022-10-22T06:50:03.034Z,100406.00
2022-10-22T06:51:34.745Z,100406.40
2022-10-22T06:53:06.595Z,100408.40
2022-10-22T06:54:38.473Z,100412.40
2022-10-22T06:56:17.598Z,100416.20
2022-10-22T06:57:49.347Z,100422.40
2022-10-22T06:59:21.100Z,100423.40
2022-10-22T07:01:06.614Z,100429.00
2022-10-22T07:02:38.621Z,100430.80
2022-10-22T07:04:11.073Z,100429.20
2022-10-22T07:05:42.820Z,100434.40
2022-10-22T07:07:15.087Z,100436.40
2022-10-22T07:08:47.129Z,100439.80
2022-10-22T07:10:19.052Z,100446.20
2022-10-22T07:11:50.824Z,100448.80
2022-10-22T07:13:23.842Z,100451.60
2022-10-22T07:14:55.591Z,100454.20
2022-10-22T07:16:31.170Z,100457.80
2022-10-22T07:18:05.589Z,100457.40
2022-10-22T07:19:37.534Z,100463.80
2022-10-22T07:21:11.897Z,100461.20
2022-10-22T07:22:43.784Z,100467.40
2022-10-22T07:24:15.754Z,100469.60
2022-10-22T07:25:47.589Z,100465.00
2022-10-22T07:27:19.686Z,100466.00
2022-10-22T07:28:52.152Z,100469.60
2022-10-22T07:30:24.060Z,100471.00
2022-10-22T07:31:56.113Z,100474.80
2022-10-22T07:33:28.131Z,100477.40
2022-10-22T07:34:59.923Z,100482.00
2022-10-22T07:36:31.684Z,100480.00
2022-10-22T07:38:03.755Z,100483.80
2022-10-22T07:39:35.578Z,100485.20
2022-10-22T07:41:07.272Z,100485.00
2022-10-22T07:42:39.034Z,100481.80
2022-10-22T07:44:10.777Z,100482.80
2022-10-22T07:45:42.463Z,100487.40
2022-10-22T07:47:14.135Z,100486.00
2022-10-22T07:48:46.799Z,100486.40
2022-10-22T07:50:19.378Z,100488.60
2022-10-22T07:51:51.232Z,100492.80
2022-10-22T07:53:22.984Z,100489.40
2022-10-22T07:54:54.686Z,100488.60
2022-10-22T07:56:26.497Z,100494.80
2022-10-22T07:57:58.180Z,100499.40
2022-10-22T07:59:32.747Z,100498.80
2022-10-22T08:01:07.681Z,100501.00
2022-10-22T08:02:39.772Z,100502.80
2022-10-22T08:04:11.969Z,100500.40
2022-10-22T08:05:44.373Z,100502.00
2022-10-22T08:07:16.519Z,100505.00
2022-10-22T08:10:15.653Z,100509.40
2022-10-22T08:11:47.612Z,100514.80
2022-10-22T08:13:20.201Z,100515.20
2022-10-22T08:14:51.962Z,100515.40
2022-10-22T08:16:23.759Z,100521.00
2022-10-22T08:17:55.519Z,100519.40
2022-10-22T08:19:28.834Z,100518.20
2022-10-22T08:21:00.605Z,100525.40
2022-10-22T08:22:32.459Z,100522.40
2022-10-22T08:24:04.699Z,100525.00
2022-10-22T08:25:36.495Z,100526.60
2022-10-22T08:27:08.174Z,100528.80
2022-10-22T08:28:40.028Z,100528.80
2022-10-22T08:30:13.596Z,100532.40
2022-10-22T08:31:45.299Z,100530.60
2022-10-22T08:33:17.210Z,100535.80
2022-10-22T08:34:49.104Z,100534.60
2022-10-22T08:36:21.430Z,100539.80
2022-10-22T08:37:53.127Z,100541.00
2022-10-22T08:39:25.144Z,100540.20
2022-10-22T08:41:09.835Z,100546.40
2022-10-22T08:43:00.361Z,100549.00
2022-10-22T08:45:14.745Z,100552.00
2022-10-22T08:47:18.600Z,100561.80
2022-10-22T08:48:56.140Z,100557.80
2022-10-22T08:50:39.218Z,100562.00
2022-10-22T08:52:19.057Z,100560.60
